Time;durP1;ratioP1;P1;durP2;ratioP2;P2;SDS_P1;SDS_P2;PMS_P1;PMS_P2;Temp;Humidity;BMP_temperature;BMP_pressure;BME280_temperature;BME280_humidity;BME280_pressure;Samples;Min_cycle;Max_cycle;Signal;HPM_P1;HPM_P2
2022/02/14 00:01:30;;;;;;;7.97;5.97;;;-4.00;99.90;-4.30;96854.00;;;;5125562;27;20474;-81
2022/02/14 00:03:58;;;;;;;5.97;5.40;;;-4.00;99.90;-4.60;96843.00;;;;5132317;27;20470;-80
2022/02/14 00:06:27;;;;;;;10.07;7.50;;;-4.00;99.90;-4.40;96846.00;;;;5128395;27;20427;-80
2022/02/14 00:08:57;;;;;;;10.40;7.53;;;-4.10;99.90;-4.10;96847.00;;;;5122552;27;20873;-80
2022/02/14 00:11:26;;;;;;;12.10;8.43;;;-4.00;99.90;-3.80;96833.00;;;;5125251;27;20460;-81
2022/02/14 00:13:55;;;;;;;8.90;6.63;;;-4.00;99.90;-3.70;96834.00;;;;5131826;27;20455;-81
2022/02/14 00:16:24;;;;;;;7.73;5.97;;;-3.90;99.90;-4.20;96824.00;;;;5134026;27;20435;-81
2022/02/14 00:18:52;;;;;;;7.20;5.77;;;-3.90;99.90;-4.00;96831.00;;;;5131958;27;20474;-82
2022/02/14 00:21:21;;;;;;;9.73;7.27;;;-3.90;99.90;-4.00;96826.00;;;;5133525;27;20804;-81
2022/02/14 00:23:50;;;;;;;10.37;7.90;;;-3.90;99.90;-3.70;96827.00;;;;5132141;27;20454;-81
2022/02/14 00:26:38;;;;;;;8.47;7.47;;;-2.80;99.90;-3.90;96814.00;;;;5132567;27;20423;-81
2022/02/14 00:29:07;;;;;;;12.73;7.93;;;-3.80;99.90;-3.90;96806.00;;;;5132639;27;20476;-80
2022/02/14 00:31:36;;;;;;;7.53;6.20;;;-3.80;99.90;-4.00;96808.00;;;;5130810;27;20431;-80
2022/02/14 00:34:05;;;;;;;7.57;6.77;;;-3.80;99.90;-4.40;96797.00;;;;5132155;27;20654;-80
2022/02/14 00:36:48;;;;;;;10.23;8.60;;;-4.00;99.90;-4.20;96800.00;;;;5131677;27;20431;-80
2022/02/14 00:39:17;;;;;;;9.03;7.50;;;-4.00;99.90;-4.80;96781.00;;;;5132178;27;20438;-80
2022/02/14 00:41:47;;;;;;;9.43;6.00;;;-4.10;99.90;-4.70;96791.00;;;;5126275;27;20478;-80
2022/02/14 00:44:16;;;;;;;10.03;6.03;;;-4.20;99.90;-4.50;96784.00;;;;5130234;27;20459;-79
2022/02/14 00:46:45;;;;;;;10.23;6.77;;;-3.70;99.90;-4.70;96786.00;;;;5129232;27;20440;-80
2022/02/14 00:49:14;;;;;;;5.47;5.00;;;-4.20;99.90;-4.70;96787.00;;;;5147842;27;20465;-80
2022/02/14 00:51:42;;;;;;;13.10;7.77;;;-3.80;99.90;-4.40;96786.00;;;;5148068;27;20423;-81
2022/02/14 00:54:11;;;;;;;8.23;5.07;;;-3.90;99.90;-4.50;96775.00;;;;5139133;27;20475;-81
2022/02/14 00:56:40;;;;;;;8.43;7.40;;;-4.30;99.90;-4.30;96785.00;;;;5134139;27;20457;-81
2022/02/14 00:59:10;;;;;;;9.17;6.13;;;-4.30;99.90;-4.50;96773.00;;;;5132898;27;20424;-79
2022/02/14 01:01:39;;;;;;;8.57;7.40;;;-4.30;99.90;-4.40;96772.00;;;;5132098;27;20423;-81
2022/02/14 01:04:08;;;;;;;15.50;8.57;;;-3.70;99.90;-4.10;96782.00;;;;5153986;27;20619;-81
2022/02/14 01:06:37;;;;;;;10.57;7.23;;;-4.30;99.90;-4.10;96777.00;;;;5151758;27;20451;-82
2022/02/14 01:09:05;;;;;;;12.20;6.70;;;-3.90;99.90;-4.20;96769.00;;;;5134249;27;20436;-82
2022/02/14 01:11:34;;;;;;;10.17;6.80;;;-4.00;99.90;-4.00;96773.00;;;;5133399;27;20526;-81
2022/02/14 01:14:03;;;;;;;6.30;5.60;;;-4.30;99.90;-4.20;96760.00;;;;5124307;27;20466;-79
2022/02/14 01:16:33;;;;;;;7.33;6.07;;;-4.20;99.90;-4.90;96760.00;;;;5131778;27;20439;-80
2022/02/14 01:19:03;;;;;;;11.47;7.60;;;-4.30;99.90;-4.60;96753.00;;;;5130792;27;20457;-81
2022/02/14 01:21:31;;;;;;;13.63;8.00;;;-4.30;99.90;-4.50;96746.00;;;;5128000;27;20428;-80
2022/02/14 01:24:00;;;;;;;11.30;7.93;;;-4.40;99.90;-4.60;96748.00;;;;5130497;27;21065;-80
2022/02/14 01:26:29;;;;;;;7.67;5.83;;;-4.40;99.90;-4.60;96746.00;;;;5132330;27;20450;-80
2022/02/14 01:28:58;;;;;;;11.67;8.30;;;-4.40;99.90;-4.60;96741.00;;;;5132180;27;20428;-81
2022/02/14 01:31:27;;;;;;;9.73;7.13;;;-4.50;99.90;-4.90;96736.00;;;;5131845;27;20468;-80
2022/02/14 01:33:57;;;;;;;6.63;6.00;;;-4.60;99.90;-4.90;96739.00;;;;5131385;27;20462;-81
2022/02/14 01:36:25;;;;;;;6.97;6.23;;;-4.60;99.90;-5.00;96728.00;;;;5133094;27;20428;-79
2022/02/14 01:38:54;;;;;;;12.30;7.70;;;-4.60;99.90;-5.00;96739.00;;;;5141592;27;20471;-80
2022/02/14 01:41:26;;;;;;;4.30;3.90;;;-4.40;99.90;-5.10;96727.00;;;;5144470;27;20515;-81
2022/02/14 01:43:54;;;;;;;6.60;6.03;;;-4.60;99.90;-5.30;96712.00;;;;5127964;27;20542;-81
2022/02/14 01:46:23;;;;;;;10.37;6.87;;;-4.80;99.90;-4.90;96710.00;;;;5146683;27;20439;-81
2022/02/14 01:48:52;;;;;;;10.83;6.20;;;-4.80;99.90;-4.70;96710.00;;;;5148540;27;20446;-80
2022/02/14 01:51:24;;;;;;;7.10;6.40;;;-4.70;99.90;-4.60;96714.00;;;;5146709;27;20434;-79
2022/02/14 01:53:53;;;;;;;12.23;7.40;;;-4.70;99.90;-4.50;96706.00;;;;5138476;27;20462;-81
2022/02/14 01:56:21;;;;;;;11.33;7.73;;;-4.60;99.90;-4.40;96697.00;;;;5127157;27;20512;-82
2022/02/14 01:58:50;;;;;;;11.27;7.83;;;-4.60;99.90;-4.40;96694.00;;;;5125727;27;20420;-81
2022/02/14 02:01:19;;;;;;;9.80;7.87;;;-4.50;99.90;-4.60;96694.00;;;;5132786;27;20467;-81
2022/02/14 02:03:48;;;;;;;10.63;6.87;;;-4.50;99.90;-5.00;96684.00;;;;5131621;27;20569;-82
2022/02/14 02:06:37;;;;;;;9.70;7.07;;;-4.00;99.90;-4.80;96682.00;;;;5121913;27;20561;-83
2022/02/14 02:09:06;;;;;;;8.87;6.30;;;-4.70;99.90;-4.60;96680.00;;;;5132414;27;20432;-81
2022/02/14 02:14:22;;;;;;;8.03;6.77;;;-4.70;99.90;-5.00;96664.00;;;;5132304;27;20493;-81
2022/02/14 02:16:51;;;;;;;10.97;7.30;;;-4.80;99.90;-4.90;96662.00;;;;5132334;27;20435;-81
2022/02/14 02:19:20;;;;;;;10.73;7.97;;;-4.80;99.90;-5.00;96665.00;;;;5132335;27;20480;-81
2022/02/14 02:21:51;;;;;;;9.00;7.00;;;-4.80;99.90;-5.00;96667.00;;;;5130976;27;20462;-81
2022/02/14 02:24:23;;;;;;;7.13;6.40;;;-4.80;99.90;-5.40;96649.00;;;;5130893;27;21071;-81
2022/02/14 02:27:00;;;;;;;9.37;6.80;;;-5.00;99.90;-5.50;96647.00;;;;5132506;27;20909;-81
2022/02/14 02:29:29;;;;;;;8.23;6.33;;;-5.00;99.90;-5.20;96651.00;;;;5131839;27;20435;-81
2022/02/14 02:31:59;;;;;;;10.47;8.40;;;-5.00;99.90;-4.70;96653.00;;;;5129660;27;20431;-81
2022/02/14 02:34:27;;;;;;;10.23;7.33;;;-4.90;99.90;-4.60;96648.00;;;;5130183;27;20451;-81
2022/02/14 02:36:59;;;;;;;7.33;6.17;;;-4.90;99.90;-4.70;96644.00;;;;5130675;27;20439;-81
2022/02/14 02:39:28;;;;;;;10.80;6.83;;;-4.80;99.90;-4.90;96633.00;;;;5132649;27;20438;-81
2022/02/14 02:41:58;;;;;;;9.37;7.07;;;-4.70;99.90;-4.70;96635.00;;;;5126354;27;20437;-80
2022/02/14 02:44:27;;;;;;;7.73;6.07;;;-4.70;99.90;-5.00;96637.00;;;;5129681;27;20894;-81
2022/02/14 02:46:56;;;;;;;5.93;5.33;;;-4.00;99.90;-5.50;96630.00;;;;5130138;27;20435;-82
2022/02/14 02:49:25;;;;;;;2.83;2.13;;;-4.50;99.90;-5.80;96618.00;;;;5131983;27;20428;-82
2022/02/14 02:51:55;;;;;;;4.33;3.93;;;-5.00;99.90;-5.50;96623.00;;;;5130654;27;20435;-82
2022/02/14 02:54:25;;;;;;;7.77;7.00;;;-5.10;99.90;-5.20;96615.00;;;;5131852;27;20451;-82
2022/02/14 02:56:57;;;;;;;7.67;6.57;;;-5.10;99.90;-4.90;96615.00;;;;5130666;27;20459;-80
2022/02/14 02:59:29;;;;;;;8.70;6.27;;;-5.10;99.90;-5.10;96628.00;;;;5131039;28;20446;-82
2022/02/14 03:01:57;;;;;;;9.90;7.00;;;-4.80;99.90;-5.30;96612.00;;;;5131372;28;20439;-82
2022/02/14 03:04:26;;;;;;;9.07;6.23;;;-4.80;99.90;-5.20;96606.00;;;;5131740;28;20475;-82
2022/02/14 03:06:55;;;;;;;12.53;7.73;;;-4.80;99.90;-5.10;96606.00;;;;5132461;28;20512;-80
2022/02/14 03:09:24;;;;;;;9.07;6.30;;;-5.10;99.90;-5.30;96604.00;;;;5132012;28;20854;-82
2022/02/14 03:11:54;;;;;;;9.53;6.57;;;-5.10;99.90;-5.40;96606.00;;;;5131247;28;20443;-81
2022/02/14 03:14:24;;;;;;;9.03;5.77;;;-4.20;99.90;-5.40;96605.00;;;;5132124;28;20554;-82
2022/02/14 03:16:54;;;;;;;7.30;5.60;;;-5.20;99.90;-5.20;96595.00;;;;5126872;28;20435;-82
2022/02/14 03:19:23;;;;;;;10.63;7.17;;;-5.10;99.90;-5.10;96602.00;;;;5132931;28;20436;-82
2022/02/14 03:21:52;;;;;;;9.37;5.63;;;-5.10;99.90;-5.10;96605.00;;;;5131532;28;20677;-81
2022/02/14 03:24:20;;;;;;;7.97;7.10;;;-5.10;99.90;-5.00;96603.00;;;;5131186;28;20907;-81
2022/02/14 03:26:49;;;;;;;11.67;6.07;;;-5.00;99.90;-5.10;96597.00;;;;5132827;28;20440;-82
2022/02/14 03:29:17;;;;;;;4.93;4.53;;;-5.10;99.90;-5.80;96584.00;;;;5134159;28;20435;-82
2022/02/14 03:31:47;;;;;;;8.60;7.00;;;-5.00;99.90;-5.10;96592.00;;;;5131625;28;20436;-80
2022/02/14 03:34:16;;;;;;;9.83;7.80;;;-5.10;99.90;-5.00;96590.00;;;;5132386;28;20459;-82
2022/02/14 03:36:45;;;;;;;9.10;6.93;;;-4.30;99.90;-4.90;96589.00;;;;5132830;28;20444;-81
2022/02/14 03:39:14;;;;;;;8.53;6.60;;;-4.30;99.90;-5.00;96583.00;;;;5133074;28;20435;-82
2022/02/14 03:41:42;;;;;;;8.63;6.10;;;-5.00;99.90;-5.20;96572.00;;;;5132221;28;20431;-80
2022/02/14 03:44:11;;;;;;;13.23;7.50;;;-5.10;99.90;-5.20;96567.00;;;;5132521;28;20510;-82
2022/02/14 03:46:41;;;;;;;9.88;7.15;;;-5.00;99.90;-5.30;96561.00;;;;5127544;28;20444;-81
2022/02/14 03:49:11;;;;;;;9.20;7.97;;;-4.70;99.90;-5.40;96564.00;;;;5134526;28;20198;-81
2022/02/14 03:51:40;;;;;;;6.78;6.05;;;-4.80;99.90;-5.90;96559.00;;;;5131821;28;20775;-80
2022/02/14 03:54:08;;;;;;;14.67;7.83;;;-4.60;99.90;-5.90;96561.00;;;;5132040;28;20634;-81
2022/02/14 03:56:37;;;;;;;10.70;7.63;;;-4.60;99.90;-5.60;96558.00;;;;5132617;28;20447;-81
2022/02/14 03:59:06;;;;;;;11.00;7.43;;;-5.40;99.90;-5.50;96564.00;;;;5133645;28;20439;-81
2022/02/14 04:01:35;;;;;;;12.20;7.87;;;-5.50;99.90;-5.90;96550.00;;;;5132928;28;20432;-82
2022/02/14 04:04:04;;;;;;;12.10;7.97;;;-5.50;99.90;-5.70;96551.00;;;;5132985;27;20514;-81
2022/02/14 04:06:34;;;;;;;10.63;7.35;;;-5.50;99.90;-5.50;96555.00;;;;5141264;27;20449;-81
2022/02/14 04:09:03;;;;;;;11.17;7.27;;;-5.00;99.90;-5.30;96562.00;;;;5138143;27;20285;-82
2022/02/14 04:11:32;;;;;;;13.10;9.07;;;-5.40;99.90;-5.30;96555.00;;;;5136816;27;20435;-81
2022/02/14 04:14:01;;;;;;;10.82;6.10;;;-4.80;99.90;-5.70;96554.00;;;;5135037;27;20271;-82
2022/02/14 04:16:29;;;;;;;8.77;5.15;;;-4.70;99.90;-5.70;96549.00;;;;5136924;27;20273;-81
2022/02/14 04:18:58;;;;;;;11.50;7.33;;;-5.40;99.90;-5.50;96561.00;;;;5135420;27;20198;-82
2022/02/14 04:21:28;;;;;;;10.45;7.93;;;-5.40;99.90;-5.30;96542.00;;;;5135401;27;20479;-81
2022/02/14 04:23:58;;;;;;;13.85;7.80;;;-5.40;99.90;-5.60;96541.00;;;;5135020;27;20281;-80
2022/02/14 04:26:27;;;;;;;13.97;7.43;;;-4.80;99.90;-5.30;96543.00;;;;5137693;27;20217;-81
2022/02/14 04:28:55;;;;;;;9.07;7.13;;;-5.40;99.90;-5.30;96530.00;;;;5135046;27;20436;-80
2022/02/14 04:31:24;;;;;;;9.82;7.30;;;-5.40;99.90;-5.60;96539.00;;;;5136551;27;20204;-81
2022/02/14 04:33:53;;;;;;;11.90;7.40;;;-5.30;99.90;-6.20;96526.00;;;;5133469;27;20514;-81
2022/02/14 04:36:21;;;;;;;11.20;7.73;;;-5.50;99.90;-5.80;96535.00;;;;5135564;27;20485;-81
2022/02/14 04:38:50;;;;;;;14.90;9.82;;;-5.50;99.90;-5.50;96538.00;;;;5124213;27;20444;-81
2022/02/14 04:41:20;;;;;;;3.90;3.43;;;-5.50;99.90;-6.00;96540.00;;;;5134912;27;20186;-81
2022/02/14 04:43:49;;;;;;;12.87;7.57;;;-5.00;99.90;-6.20;96525.00;;;;5132771;27;20476;-80
2022/02/14 04:46:18;;;;;;;11.30;6.10;;;-5.60;99.90;-6.00;96532.00;;;;5135783;27;20785;-81
2022/02/14 04:48:47;;;;;;;10.50;7.70;;;-5.30;99.90;-6.00;96523.00;;;;5134956;27;20194;-82
2022/02/14 04:51:16;;;;;;;11.02;6.60;;;-5.10;99.90;-6.10;96521.00;;;;5136080;27;20225;-82
2022/02/14 04:53:44;;;;;;;4.20;2.08;;;-5.20;99.90;-6.80;96526.00;;;;5133658;27;20220;-80
2022/02/14 04:56:13;;;;;;;10.23;7.05;;;-5.80;99.90;-6.60;96525.00;;;;5135036;27;20268;-82
2022/02/14 04:58:43;;;;;;;9.20;7.13;;;-5.90;99.90;-6.60;96523.00;;;;5135039;27;20223;-81
2022/02/14 05:01:12;;;;;;;11.77;6.97;;;-6.00;99.90;-6.20;96535.00;;;;5135735;27;20226;-81
2022/02/14 05:03:41;;;;;;;3.38;3.10;;;-5.10;99.90;-6.30;96538.00;;;;5134278;27;20282;-81
2022/02/14 05:06:10;;;;;;;9.40;7.47;;;-5.90;99.90;-5.90;96527.00;;;;5135588;27;20213;-81
2022/02/14 05:08:40;;;;;;;6.43;4.30;;;-5.10;99.90;-5.90;96525.00;;;;5135335;27;20193;-81
2022/02/14 05:11:10;;;;;;;10.65;6.45;;;-5.80;99.90;-6.00;96531.00;;;;5129452;27;20201;-82
2022/02/14 05:13:41;;;;;;;5.38;4.88;;;-5.70;99.90;-6.30;96529.00;;;;5125813;27;20222;-82
2022/02/14 05:16:11;;;;;;;9.18;6.93;;;-5.70;99.90;-6.20;96523.00;;;;5129748;27;20198;-81
2022/02/14 05:18:40;;;;;;;9.55;7.68;;;-5.00;99.90;-5.80;96526.00;;;;5133359;27;20197;-81
2022/02/14 05:21:09;;;;;;;8.27;6.82;;;-5.70;99.90;-5.60;96534.00;;;;5135612;27;20298;-81
2022/02/14 05:23:37;;;;;;;12.38;8.45;;;-5.20;99.90;-5.80;96545.00;;;;5133777;27;20202;-81
2022/02/14 05:26:08;;;;;;;11.73;6.93;;;-5.60;99.90;-6.00;96520.00;;;;5129751;27;20218;-81
2022/02/14 05:28:37;;;;;;;10.13;7.65;;;-6.60;99.90;-5.80;96528.00;;;;5126603;27;20456;-82
2022/02/14 05:31:07;;;;;;;10.02;6.03;;;-5.70;99.90;-5.90;96535.00;;;;5132458;27;20198;-82
2022/02/14 05:33:37;;;;;;;11.90;7.83;;;-5.80;99.90;-6.00;96528.00;;;;5123709;27;20198;-81
2022/02/14 05:36:24;;;;;;;5.20;4.57;;;-5.40;99.90;-6.40;96522.00;;;;5130131;27;20465;-83
2022/02/14 05:38:53;;;;;;;8.35;5.30;;;-5.90;99.90;-6.20;96531.00;;;;5124216;27;20222;-83
2022/02/14 05:41:21;;;;;;;9.13;6.55;;;-5.90;99.90;-6.00;96529.00;;;;5129433;27;20198;-82
2022/02/14 05:43:50;;;;;;;13.23;7.30;;;-5.90;99.90;-5.70;96530.00;;;;5119738;27;20227;-81
2022/02/14 05:46:19;;;;;;;3.87;3.57;;;-5.70;99.90;-5.90;96522.00;;;;5131236;27;20218;-83
2022/02/14 05:48:50;;;;;;;9.70;8.00;;;-4.80;99.90;-5.90;96524.00;;;;5129015;27;20478;-82
2022/02/14 05:51:19;;;;;;;6.20;3.53;;;-5.70;99.90;-6.20;96528.00;;;;5133643;27;20518;-81
2022/02/14 05:53:48;;;;;;;8.27;6.95;;;-5.80;99.90;-6.40;96523.00;;;;5132692;27;20214;-81
2022/02/14 05:56:17;;;;;;;10.35;7.38;;;-5.80;99.90;-6.10;96521.00;;;;5134952;27;20215;-82
2022/02/14 05:58:46;;;;;;;10.55;8.05;;;-5.80;99.90;-6.00;96527.00;;;;5128817;27;20190;-82
2022/02/14 06:01:15;;;;;;;11.82;8.30;;;-5.90;99.90;-5.80;96534.00;;;;5135297;27;20225;-82
2022/02/14 06:03:44;;;;;;;9.47;8.07;;;-5.10;99.90;-5.70;96533.00;;;;5135230;27;20273;-81
2022/02/14 06:06:14;;;;;;;10.90;8.77;;;-5.40;99.90;-5.70;96533.00;;;;5121574;27;20536;-81
2022/02/14 06:08:43;;;;;;;10.63;8.33;;;-5.50;99.90;-5.70;96539.00;;;;5134615;27;20527;-82
2022/02/14 06:11:12;;;;;;;9.10;7.38;;;-5.00;99.90;-6.00;96533.00;;;;5135680;27;21072;-82
2022/02/14 06:13:40;;;;;;;5.80;5.30;;;-4.90;99.90;-6.50;96526.00;;;;5134632;27;20249;-81
2022/02/14 06:16:09;;;;;;;4.30;3.50;;;-5.00;99.90;-6.90;96526.00;;;;5126366;27;20863;-82
2022/02/14 06:18:38;;;;;;;10.23;5.95;;;-6.00;99.90;-6.90;96523.00;;;;5129216;27;20428;-81
2022/02/14 06:21:09;;;;;;;9.73;7.22;;;-6.00;99.90;-6.60;96518.00;;;;5135418;27;20202;-82
2022/02/14 06:23:42;;;;;;;5.80;5.10;;;-4.90;99.90;-6.60;96521.00;;;;5130929;27;20439;-81
2022/02/14 06:26:10;;;;;;;3.45;3.15;;;-5.00;99.90;-7.00;96540.00;;;;5125846;27;20652;-83
2022/02/14 06:28:40;;;;;;;6.40;4.82;;;-6.10;99.90;-6.60;96526.00;;;;5124148;27;20199;-81
2022/02/14 06:31:10;;;;;;;5.45;4.90;;;-5.10;99.90;-6.20;96535.00;;;;5121760;27;20231;-81
2022/02/14 06:33:42;;;;;;;6.57;4.90;;;-5.90;99.90;-5.90;96533.00;;;;5117737;27;20210;-81
2022/02/14 06:36:11;;;;;;;10.52;5.40;;;-6.00;99.90;-6.10;96531.00;;;;5119931;27;20197;-81
2022/02/14 06:38:41;;;;;;;7.68;3.85;;;-5.10;99.90;-6.60;96528.00;;;;5120166;27;20274;-82
2022/02/14 06:41:29;;;;;;;7.78;6.00;;;-5.20;99.90;-6.10;96539.00;;;;5119546;27;20213;-82
2022/02/14 06:43:58;;;;;;;9.77;8.32;;;-5.90;99.90;-6.10;96519.00;;;;5118484;27;20240;-81
2022/02/14 06:46:27;;;;;;;10.07;6.93;;;-5.80;99.90;-5.90;96535.00;;;;5118547;27;20229;-80
2022/02/14 06:48:56;;;;;;;6.47;4.53;;;-5.80;99.90;-5.80;96534.00;;;;5121563;27;20206;-81
2022/02/14 06:51:25;;;;;;;8.57;6.32;;;-4.80;99.90;-5.80;96540.00;;;;5122305;27;20217;-81
2022/02/14 06:53:55;;;;;;;7.45;6.68;;;-4.20;99.90;-6.10;96540.00;;;;5124702;27;20219;-80
2022/02/14 06:56:23;;;;;;;3.78;3.47;;;-4.80;99.90;-6.20;96533.00;;;;5124245;27;20276;-80
2022/02/14 06:58:52;;;;;;;4.95;3.33;;;-5.60;99.90;-6.40;96532.00;;;;5124775;27;20447;-81
2022/02/14 07:01:21;;;;;;;6.13;5.45;;;-5.70;99.90;-6.20;96533.00;;;;5129610;28;20200;-81
2022/02/14 07:03:50;;;;;;;9.63;5.15;;;-4.90;99.90;-6.10;96537.00;;;;5120437;27;20270;-83
2022/02/14 07:06:18;;;;;;;7.70;4.75;;;-5.70;99.90;-6.00;96529.00;;;;5118552;27;20229;-82
2022/02/14 07:08:49;;;;;;;4.30;4.00;;;-4.80;99.90;-6.20;96531.00;;;;5128924;27;20262;-80
2022/02/14 07:11:20;;;;;;;6.20;3.93;;;-5.40;99.90;-6.20;96525.00;;;;5139977;27;20215;-81
2022/02/14 07:13:49;;;;;;;4.15;3.03;;;-5.10;99.90;-5.90;96532.00;;;;5130776;27;20471;-84
2022/02/14 07:16:17;;;;;;;7.35;6.45;;;-6.10;99.90;-5.90;96531.00;;;;5122849;27;20190;-82
2022/02/14 07:18:46;;;;;;;20.00;12.20;;;-5.00;99.90;-5.90;96524.00;;;;5119507;27;20202;-82
2022/02/14 07:21:17;;;;;;;17.45;10.10;;;-5.10;99.90;-5.40;96515.00;;;;5119486;27;20198;-83
2022/02/14 07:23:45;;;;;;;36.00;17.20;;;-5.30;99.90;-5.40;96518.00;;;;5120240;27;20281;-84
2022/02/14 07:26:15;;;;;;;2.85;2.25;;;-4.30;99.90;-5.80;96525.00;;;;5120895;27;20501;-83
2022/02/14 07:28:46;;;;;;;8.00;6.50;;;-5.20;99.90;-5.60;96518.00;;;;5121670;28;20212;-82
2022/02/14 07:31:15;;;;;;;6.68;5.60;;;-5.20;99.90;-5.60;96527.00;;;;5118626;27;20435;-83
2022/02/14 07:33:44;;;;;;;7.47;5.57;;;-4.40;99.90;-5.40;96510.00;;;;5116548;27;20222;-81
2022/02/14 07:36:12;;;;;;;8.07;6.37;;;-3.90;99.90;-5.20;96519.00;;;;5116454;27;20470;-82
2022/02/14 07:38:41;;;;;;;9.87;6.93;;;-4.90;99.90;-5.20;96524.00;;;;5116639;27;20453;-79
2022/02/14 07:41:10;;;;;;;14.03;9.20;;;-4.80;99.90;-4.80;96515.00;;;;5121151;27;20436;-81
2022/02/14 07:43:39;;;;;;;36.37;8.50;;;-4.80;99.90;-4.90;96506.00;;;;5122804;27;20455;-81
2022/02/14 07:46:09;;;;;;;14.33;6.40;;;-4.50;99.90;-4.90;96510.00;;;;5121672;27;20471;-79
2022/02/14 07:48:39;;;;;;;12.63;6.00;;;-4.60;99.90;-5.20;96507.00;;;;5120832;27;20720;-80
2022/02/14 07:51:07;;;;;;;4.73;4.27;;;-4.60;99.90;-5.40;96506.00;;;;5121608;27;20448;-79
2022/02/14 07:53:36;;;;;;;8.57;5.93;;;-4.50;99.90;-5.10;96511.00;;;;5121890;27;20442;-82
2022/02/14 07:56:06;;;;;;;14.47;2.90;;;-4.60;99.90;-5.20;96505.00;;;;5120218;27;20447;-81
2022/02/14 07:58:37;;;;;;;1.73;1.63;;;-4.60;99.90;-4.70;96494.00;;;;5121077;27;20452;-80
2022/02/14 08:01:06;;;;;;;3.63;2.43;;;-4.50;99.90;-4.50;96502.00;;;;5120530;27;20660;-82
2022/02/14 08:03:36;;;;;;;7.37;5.27;;;-4.40;99.90;-4.60;96503.00;;;;5123103;27;20498;-78
2022/02/14 08:06:14;;;;;;;9.47;7.90;;;-4.30;99.90;-4.00;96506.00;;;;5125567;27;20478;-82
2022/02/14 08:08:42;;;;;;;5.67;5.17;;;-4.10;99.90;-3.90;96507.00;;;;5127473;27;20435;-81
2022/02/14 08:11:11;;;;;;;12.10;6.50;;;-3.90;99.90;-3.70;96502.00;;;;5129314;27;20546;-80
2022/02/14 08:13:40;;;;;;;10.50;7.80;;;-3.80;99.90;-3.10;96506.00;;;;5127713;27;20455;-80
2022/02/14 08:16:09;;;;;;;7.57;6.63;;;-3.60;99.90;-2.90;96497.00;;;;5130366;27;20462;-82
2022/02/14 08:18:39;;;;;;;6.43;5.43;;;-3.40;99.90;-3.50;96493.00;;;;5123449;27;20439;-83
2022/02/14 08:21:08;;;;;;;11.97;6.13;;;-3.30;99.90;-3.20;96505.00;;;;5120867;27;20451;-81
2022/02/14 08:23:37;;;;;;;9.17;6.97;;;-3.10;99.90;-3.00;96499.00;;;;5119583;27;20570;-82
2022/02/14 08:26:06;;;;;;;6.80;5.77;;;-3.10;99.90;-2.70;96509.00;;;;5121274;27;20463;-82
2022/02/14 08:28:34;;;;;;;8.63;6.33;;;-2.90;99.90;-2.60;96501.00;;;;5120767;27;20445;-83
2022/02/14 08:31:03;;;;;;;16.13;6.80;;;-2.80;99.90;-2.40;96495.00;;;;5117626;27;20443;-82
2022/02/14 08:33:32;;;;;;;12.63;7.10;;;-2.70;99.90;-2.00;96503.00;;;;5120940;27;20451;-83
2022/02/14 08:36:03;;;;;;;15.57;9.47;;;-2.50;99.90;-1.90;96492.00;;;;5122687;27;20448;-82
2022/02/14 08:38:31;;;;;;;11.20;7.50;;;-2.10;99.90;-1.80;96483.00;;;;5119319;27;20443;-82
2022/02/14 08:41:00;;;;;;;7.03;5.10;;;-2.10;99.90;-1.60;96484.00;;;;5121425;27;20536;-82
2022/02/14 08:43:29;;;;;;;12.50;7.03;;;-1.90;99.90;-1.00;96473.00;;;;5119020;27;20448;-83
2022/02/14 08:46:04;;;;;;;9.20;7.13;;;-1.00;99.90;-0.40;96500.00;;;;5118097;27;20435;-82
2022/02/14 08:48:35;;;;;;;10.93;5.27;;;-1.40;99.90;-0.90;96491.00;;;;5124507;27;20494;-81
2022/02/14 08:51:05;;;;;;;14.03;6.20;;;-1.20;99.90;-0.60;96488.00;;;;5118143;27;20452;-82
2022/02/14 08:53:37;;;;;;;7.03;6.20;;;-1.00;99.90;-0.10;96490.00;;;;5124377;27;20454;-81
2022/02/14 08:56:07;;;;;;;14.43;5.00;;;-0.40;99.90;-0.30;96478.00;;;;5119019;27;20448;-81
2022/02/14 08:58:39;;;;;;;6.23;5.03;;;-0.60;99.90;-0.10;96480.00;;;;5119275;27;20447;-83
2022/02/14 09:01:08;;;;;;;5.37;4.90;;;-0.50;99.90;0.00;96478.00;;;;5120780;27;20444;-82
2022/02/14 09:03:39;;;;;;;7.47;4.27;;;-0.40;99.90;0.00;96493.00;;;;5120473;27;20448;-82
2022/02/14 09:06:28;;;;;;;7.60;5.27;;;0.70;99.90;0.00;96483.00;;;;5124561;27;20474;-83
2022/02/14 09:09:04;;;;;;;4.70;4.27;;;-0.20;99.90;0.30;96484.00;;;;5123314;27;20446;-82
2022/02/14 09:11:32;;;;;;;8.50;4.17;;;-0.10;99.90;0.60;96487.00;;;;5124079;27;20444;-83
2022/02/14 09:14:01;;;;;;;7.33;4.83;;;0.10;99.90;0.50;96480.00;;;;5119106;27;20464;-82
2022/02/14 09:16:30;;;;;;;5.60;4.43;;;0.20;99.90;0.90;96473.00;;;;5123429;27;20440;-82
2022/02/14 09:18:58;;;;;;;6.17;4.40;;;0.30;99.90;1.10;96466.00;;;;5117166;27;20471;-82
2022/02/14 09:21:29;;;;;;;9.63;5.30;;;0.60;99.90;1.70;96483.00;;;;5122508;27;20483;-82
2022/02/14 09:23:58;;;;;;;7.67;4.73;;;0.70;99.90;1.50;96475.00;;;;5127553;27;20483;-82
2022/02/14 09:26:28;;;;;;;7.00;4.87;;;0.90;99.90;1.70;96474.00;;;;5118627;27;20238;-80
2022/02/14 09:28:56;;;;;;;6.27;3.50;;;1.10;99.90;2.40;96476.00;;;;5118536;27;20477;-82
2022/02/14 09:31:25;;;;;;;10.63;3.77;;;1.30;99.90;2.60;96475.00;;;;5120853;27;20479;-83
2022/02/14 09:33:54;;;;;;;11.17;4.87;;;1.50;99.90;2.90;96467.00;;;;5122649;27;20571;-83
2022/02/14 09:36:22;;;;;;;4.30;3.43;;;1.70;99.90;2.70;96468.00;;;;5119105;27;20823;-82
2022/02/14 09:38:52;;;;;;;6.07;3.43;;;2.00;99.90;3.00;96474.00;;;;5120818;27;20443;-81
2022/02/14 09:41:21;;;;;;;5.67;3.07;;;2.20;99.90;3.70;96476.00;;;;5116934;27;20866;-82
2022/02/14 09:43:50;;;;;;;11.33;4.53;;;3.40;99.90;4.10;96463.00;;;;5114495;27;20467;-84
2022/02/14 09:46:19;;;;;;;5.53;4.20;;;2.70;99.90;4.40;96479.00;;;;5117225;27;20449;-83
2022/02/14 09:48:49;;;;;;;7.50;4.23;;;3.00;99.90;4.50;96469.00;;;;5121288;27;20474;-82
2022/02/14 09:51:18;;;;;;;9.67;3.77;;;3.20;98.30;4.90;96480.00;;;;5124632;27;20865;-82
2022/02/14 09:53:47;;;;;;;6.83;4.20;;;3.50;98.00;4.90;96466.00;;;;5113345;27;20565;-82
2022/02/14 09:56:17;;;;;;;6.33;3.83;;;3.70;95.70;5.10;96472.00;;;;5113745;27;20432;-83
2022/02/14 09:58:46;;;;;;;9.03;4.10;;;3.90;93.80;5.00;96470.00;;;;5121716;27;20854;-82
2022/02/14 10:01:14;;;;;;;6.93;3.90;;;4.00;92.40;5.40;96471.00;;;;5111744;27;20440;-81
2022/02/14 10:03:50;;;;;;;11.10;4.73;;;4.20;92.20;5.10;96471.00;;;;5116465;27;20470;-81
2022/02/14 10:06:30;;;;;;;5.07;3.53;;;4.30;89.40;5.30;96463.00;;;;5118616;27;20202;-81
2022/02/14 10:09:11;;;;;;;5.60;3.27;;;4.40;88.70;5.40;96470.00;;;;5121764;27;20236;-82
2022/02/14 10:12:01;;;;;;;4.97;3.80;;;4.60;85.30;5.40;96464.00;;;;5121177;27;20194;-84
2022/02/14 10:14:31;;;;;;;35.57;6.50;;;4.70;84.00;6.00;96475.00;;;;5137356;27;20482;-83
2022/02/14 10:17:07;;;;;;;20.00;4.87;;;4.90;82.20;6.40;96468.00;;;;5124084;27;20200;-83
2022/02/14 10:19:39;;;;;;;4.03;2.90;;;5.00;82.10;6.50;96470.00;;;;5117852;27;20486;-82
2022/02/14 10:22:28;;;;;;;13.80;3.97;;;5.20;81.30;6.70;96471.00;;;;5117358;27;20205;-83
2022/02/14 10:24:57;;;;;;;9.37;3.83;;;5.30;80.50;7.00;96470.00;;;;5120374;27;20601;-82
2022/02/14 10:27:34;;;;;;;6.00;3.57;;;5.50;80.70;7.10;96461.00;;;;5119455;27;20309;-81
2022/02/14 10:30:11;;;;;;;4.73;2.90;;;5.70;78.40;7.50;96466.00;;;;5112461;27;20237;-81
2022/02/14 10:32:51;;;;;;;5.40;3.50;;;5.90;79.60;7.50;96459.00;;;;5119689;27;20233;-81
2022/02/14 10:35:20;;;;;;;5.40;3.77;;;6.00;77.20;7.80;96457.00;;;;5114876;27;20221;-81
2022/02/14 10:37:52;;;;;;;4.90;3.63;;;6.20;76.20;8.00;96443.00;;;;5114900;27;20219;-82
2022/02/14 10:40:30;;;;;;;11.43;4.60;;;6.40;75.20;8.30;96451.00;;;;5116656;27;20235;-82
2022/02/14 10:43:01;;;;;;;7.50;2.73;;;6.60;74.90;8.60;96449.00;;;;5117970;27;20197;-82
2022/02/14 10:45:30;;;;;;;7.00;3.20;;;6.90;73.50;9.10;96452.00;;;;5115970;27;20468;-82
2022/02/14 10:48:04;;;;;;;11.87;4.30;;;7.20;74.60;9.80;96444.00;;;;5116377;27;20478;-83
2022/02/14 10:50:33;;;;;;;5.97;3.67;;;7.70;73.70;9.40;96442.00;;;;5114493;27;20201;-82
2022/02/14 10:53:04;;;;;;;9.17;3.67;;;8.20;65.70;10.50;96425.00;;;;5111937;27;20222;-80
2022/02/14 10:55:38;;;;;;;4.27;2.73;;;8.60;67.00;10.80;96440.00;;;;5116872;27;20465;-81
2022/02/14 10:58:10;;;;;;;6.40;2.80;;;9.10;64.90;11.30;96438.00;;;;5115371;27;20233;-81
2022/02/14 11:00:40;;;;;;;7.90;3.20;;;9.50;65.20;11.70;96441.00;;;;5114444;27;20239;-82
2022/02/14 11:03:11;;;;;;;7.47;3.00;;;9.90;62.90;11.90;96436.00;;;;5125171;27;20252;-82
2022/02/14 11:05:40;;;;;;;8.73;3.50;;;10.30;59.70;12.60;96430.00;;;;5117057;27;20288;-82
2022/02/14 11:08:10;;;;;;;8.87;4.10;;;10.70;60.60;12.40;96428.00;;;;5118799;28;20210;-81
2022/02/14 11:10:44;;;;;;;5.73;3.47;;;11.00;57.80;12.40;96430.00;;;;5117339;28;20316;-81